Time;durP1;ratioP1;P1;durP2;ratioP2;P2;SDS_P1;SDS_P2;PMS_P1;PMS_P2;Temp;Humidity;BMP_temperature;BMP_pressure;BME280_temperature;BME280_humidity;BME280_pressure;Samples;Min_cycle;Max_cycle;Signal;HPM_P1;HPM_P2
2021/01/06 00:01:08;;;;;;;;;;;3.10;99.90;;;;;;4838438;29;19945;-80
2021/01/06 00:03:38;;;;;;;;;;;3.10;99.90;;;;;;4823207;29;19924;-80
2021/01/06 00:06:06;;;;;;;;;;;3.10;99.90;;;;;;4802932;29;19948;-78
2021/01/06 00:08:33;;;;;;;;;;;3.20;99.90;;;;;;4821802;29;19925;-79
2021/01/06 00:11:06;;;;;;;;;;;3.20;99.90;;;;;;4817402;29;19925;-79
2021/01/06 00:13:34;;;;;;;;;;;3.20;99.90;;;;;;4835488;29;19924;-83
2021/01/06 00:16:05;;;;;;;;;;;3.20;99.90;;;;;;4829138;29;19944;-79
2021/01/06 00:18:32;;;;;;;;;;;3.10;99.90;;;;;;4819140;29;20300;-79
2021/01/06 00:20:59;;;;;;;;;;;3.10;99.90;;;;;;4826466;29;19935;-79
2021/01/06 00:23:26;;;;;;;;;;;3.00;99.90;;;;;;4828096;29;19936;-80
2021/01/06 00:25:53;;;;;;;;;;;3.00;99.90;;;;;;4833832;29;19925;-79
2021/01/06 00:28:21;;;;;;;;;;;2.90;99.90;;;;;;4816215;29;19925;-82
2021/01/06 00:30:49;;;;;;;;;;;2.90;99.90;;;;;;4813334;29;20189;-81
2021/01/06 00:33:23;;;;;;;;;;;2.90;99.90;;;;;;4828270;29;19940;-80
2021/01/06 00:35:51;;;;;;;;;;;3.00;99.90;;;;;;4828248;29;19924;-80
2021/01/06 00:38:19;;;;;;;;;;;3.00;99.90;;;;;;4806263;29;19925;-79
2021/01/06 00:40:46;;;;;;;;;;;3.00;99.90;;;;;;4832255;29;19917;-81
2021/01/06 00:43:14;;;;;;;;;;;2.90;99.90;;;;;;4823856;29;19929;-79
2021/01/06 00:45:41;;;;;;;;;;;3.10;99.90;;;;;;4821353;29;19936;-79
2021/01/06 00:48:12;;;;;;;;;;;3.10;99.90;;;;;;4826051;29;19928;-81
2021/01/06 00:50:40;;;;;;;;;;;3.10;99.90;;;;;;4828164;29;19952;-80
2021/01/06 00:53:09;;;;;;;;;;;3.10;99.90;;;;;;4811602;29;19925;-79
2021/01/06 00:55:43;;;;;;;;;;;3.00;99.90;;;;;;4826189;29;19929;-79
2021/01/06 00:58:11;;;;;;;;;;;3.00;99.90;;;;;;4824566;29;19935;-79
2021/01/06 01:00:40;;;;;;;;;;;3.00;99.90;;;;;;4817789;29;20352;-79
2021/01/06 01:03:12;;;;;;;;;;;3.00;99.90;;;;;;4813888;29;19935;-81
2021/01/06 01:05:42;;;;;;;;;;;3.00;99.90;;;;;;4824904;29;20244;-82
2021/01/06 01:08:09;;;;;;;;;;;3.00;99.90;;;;;;4832114;29;19936;-80
2021/01/06 01:10:38;;;;;;;;;;;3.00;99.90;;;;;;4821396;29;19936;-79
2021/01/06 01:13:06;;;;;;;;;;;3.00;99.90;;;;;;4813702;29;19932;-80
2021/01/06 01:15:36;;;;;;;;;;;3.00;99.90;;;;;;4825717;29;19936;-79
2021/01/06 01:18:04;;;;;;;;;;;3.00;99.90;;;;;;4815689;29;19935;-80
2021/01/06 01:20:31;;;;;;;;;;;3.10;99.90;;;;;;4822332;29;19925;-79
2021/01/06 01:23:00;;;;;;;;;;;3.00;99.90;;;;;;4822783;29;19924;-79
2021/01/06 01:25:28;;;;;;;;;;;3.00;99.90;;;;;;4796741;29;19925;-78
2021/01/06 01:27:55;;;;;;;;;;;3.00;99.90;;;;;;4816708;29;19936;-79
2021/01/06 01:30:26;;;;;;;;;;;3.00;99.90;;;;;;4825242;29;20351;-80
2021/01/06 01:32:53;;;;;;;;;;;3.00;99.90;;;;;;4821443;29;19935;-80
2021/01/06 01:35:22;;;;;;;;;;;2.90;99.90;;;;;;4821416;29;19924;-81
2021/01/06 01:37:49;;;;;;;;;;;3.00;99.90;;;;;;4807727;29;19925;-80
2021/01/06 01:40:22;;;;;;;;;;;3.00;99.90;;;;;;4825438;29;20363;-81
2021/01/06 01:42:56;;;;;;;;;;;3.00;99.90;;;;;;4799559;29;19924;-79
2021/01/06 01:45:27;;;;;;;;;;;3.00;99.90;;;;;;4827720;29;19940;-79
2021/01/06 01:47:56;;;;;;;;;;;3.00;99.90;;;;;;4832753;29;19932;-81
2021/01/06 01:50:24;;;;;;;;;;;3.00;99.90;;;;;;4823802;29;20278;-80
2021/01/06 01:52:55;;;;;;;;;;;3.00;99.90;;;;;;4825136;29;20299;-79
2021/01/06 01:55:26;;;;;;;;;;;3.10;99.90;;;;;;4824915;29;19926;-81
2021/01/06 01:57:55;;;;;;;;;;;3.00;99.90;;;;;;4828865;29;20425;-80
2021/01/06 02:00:25;;;;;;;;;;;3.00;99.90;;;;;;4811874;29;19929;-80
2021/01/06 02:02:56;;;;;;;;;;;3.10;99.90;;;;;;4812492;29;19939;-79
2021/01/06 02:05:28;;;;;;;;;;;3.10;99.90;;;;;;4809727;29;20260;-80
2021/01/06 02:08:00;;;;;;;;;;;3.10;99.90;;;;;;4825288;29;19932;-81
2021/01/06 02:10:31;;;;;;;;;;;3.20;99.90;;;;;;4826126;29;19951;-79
2021/01/06 02:13:00;;;;;;;;;;;3.20;99.90;;;;;;4828621;29;19932;-82
2021/01/06 02:15:30;;;;;;;;;;;3.10;99.90;;;;;;4825482;29;19936;-80
2021/01/06 02:17:59;;;;;;;;;;;3.10;99.90;;;;;;4809224;29;19936;-80
2021/01/06 02:20:27;;;;;;;;;;;3.10;99.90;;;;;;4821639;29;19924;-81
2021/01/06 02:22:58;;;;;;;;;;;3.00;99.90;;;;;;4794137;29;20405;-78
2021/01/06 02:25:27;;;;;;;;;;;3.00;99.90;;;;;;4807246;29;19935;-80
2021/01/06 02:27:55;;;;;;;;;;;3.00;99.90;;;;;;4826158;29;19944;-80
2021/01/06 02:30:23;;;;;;;;;;;3.10;99.90;;;;;;4827352;29;20271;-80
2021/01/06 02:32:52;;;;;;;;;;;3.10;99.90;;;;;;4809976;29;19924;-80
2021/01/06 02:35:20;;;;;;;;;;;3.10;99.90;;;;;;4816603;29;20262;-79
2021/01/06 02:37:48;;;;;;;;;;;3.20;99.90;;;;;;4824874;29;19924;-80
2021/01/06 02:40:16;;;;;;;;;;;3.10;99.90;;;;;;4815437;29;19936;-80
2021/01/06 02:42:43;;;;;;;;;;;3.10;99.90;;;;;;4814927;29;19928;-78
2021/01/06 02:45:15;;;;;;;;;;;3.10;99.90;;;;;;4807908;29;20296;-79
2021/01/06 02:47:48;;;;;;;;;;;3.10;99.90;;;;;;4812356;29;20363;-80
2021/01/06 02:50:17;;;;;;;;;;;3.20;99.90;;;;;;4811882;29;19924;-80
2021/01/06 02:52:48;;;;;;;;;;;3.20;99.90;;;;;;4814921;29;20375;-78
2021/01/06 02:55:20;;;;;;;;;;;3.20;99.90;;;;;;4824233;29;20353;-79
2021/01/06 02:57:48;;;;;;;;;;;3.20;99.90;;;;;;4817194;29;19925;-80
2021/01/06 03:00:20;;;;;;;;;;;3.10;99.90;;;;;;4827513;29;19947;-81
2021/01/06 03:02:49;;;;;;;;;;;3.20;99.90;;;;;;4827341;29;19924;-82
2021/01/06 03:05:19;;;;;;;;;;;3.20;99.90;;;;;;4820572;29;19928;-79
2021/01/06 03:07:51;;;;;;;;;;;3.20;99.90;;;;;;4820209;29;19925;-78
2021/01/06 03:10:21;;;;;;;;;;;3.20;99.90;;;;;;4824724;29;19945;-80
2021/01/06 03:12:50;;;;;;;;;;;3.20;99.90;;;;;;4825822;29;19932;-79
2021/01/06 03:15:19;;;;;;;;;;;3.20;99.90;;;;;;4817751;29;19925;-79
2021/01/06 03:17:46;;;;;;;;;;;3.20;99.90;;;;;;4816964;29;19935;-80
2021/01/06 03:20:16;;;;;;;;;;;3.30;99.90;;;;;;4824804;29;19929;-78
2021/01/06 03:22:48;;;;;;;;;;;3.30;99.90;;;;;;4815233;29;19936;-79
2021/01/06 03:25:16;;;;;;;;;;;3.30;99.90;;;;;;4808005;29;19940;-81
2021/01/06 03:27:46;;;;;;;;;;;3.30;99.90;;;;;;4805493;29;20065;-80
2021/01/06 03:30:15;;;;;;;;;;;3.30;99.90;;;;;;4825151;29;20414;-81
2021/01/06 03:32:44;;;;;;;;;;;3.40;99.90;;;;;;4813612;29;19952;-79
2021/01/06 03:35:20;;;;;;;;;;;3.40;99.90;;;;;;4794472;29;19924;-82
2021/01/06 03:37:51;;;;;;;;;;;3.50;99.90;;;;;;4806082;29;20347;-79
2021/01/06 03:40:22;;;;;;;;;;;3.40;99.90;;;;;;4844272;29;19954;-80
2021/01/06 03:42:50;;;;;;;;;;;3.40;99.90;;;;;;4812658;29;19925;-78
2021/01/06 03:45:18;;;;;;;;;;;3.40;99.90;;;;;;4828511;29;19936;-79
2021/01/06 03:47:46;;;;;;;;;;;3.40;99.90;;;;;;4826818;29;20220;-78
2021/01/06 03:50:19;;;;;;;;;;;3.40;99.90;;;;;;4824744;29;19936;-79
2021/01/06 03:52:51;;;;;;;;;;;3.50;99.90;;;;;;4811717;29;19925;-80
2021/01/06 03:55:29;;;;;;;;;;;3.60;99.90;;;;;;4821667;29;19928;-80
2021/01/06 03:57:57;;;;;;;;;;;3.60;99.90;;;;;;4819770;29;20271;-78
2021/01/06 04:00:41;;;;;;;;;;;3.70;99.90;;;;;;4829904;29;19929;-79
2021/01/06 04:03:12;;;;;;;;;;;3.70;99.90;;;;;;4809270;29;19925;-78
2021/01/06 04:05:42;;;;;;;;;;;3.70;99.90;;;;;;4824917;29;19924;-79
2021/01/06 04:08:10;;;;;;;;;;;3.60;99.90;;;;;;4824727;29;20012;-78
2021/01/06 04:10:41;;;;;;;;;;;3.70;99.90;;;;;;4810732;29;19925;-79
2021/01/06 04:13:09;;;;;;;;;;;3.70;99.90;;;;;;4815714;29;19925;-79
2021/01/06 04:15:38;;;;;;;;;;;3.60;99.90;;;;;;4827175;29;19924;-79
2021/01/06 04:18:06;;;;;;;;;;;3.60;99.90;;;;;;4828923;29;19925;-79
2021/01/06 04:20:36;;;;;;;;;;;3.60;99.90;;;;;;4824260;29;19943;-80
2021/01/06 04:23:05;;;;;;;;;;;3.60;99.90;;;;;;4822615;29;19940;-80
2021/01/06 04:25:33;;;;;;;;;;;3.60;99.90;;;;;;4838255;29;19925;-79
2021/01/06 04:28:04;;;;;;;;;;;3.50;99.90;;;;;;4806674;29;20343;-82
2021/01/06 04:30:35;;;;;;;;;;;3.50;99.90;;;;;;4830272;29;19935;-79
2021/01/06 04:33:04;;;;;;;;;;;3.50;99.90;;;;;;4829277;29;19925;-81
2021/01/06 04:35:32;;;;;;;;;;;3.50;99.90;;;;;;4827846;29;19925;-79
2021/01/06 04:38:02;;;;;;;;;;;3.50;99.90;;;;;;4816825;29;19924;-79
2021/01/06 04:40:34;;;;;;;;;;;3.50;99.90;;;;;;4809910;29;19925;-79
2021/01/06 04:43:05;;;;;;;;;;;3.60;99.90;;;;;;4830436;29;19936;-79
2021/01/06 04:45:36;;;;;;;;;;;3.60;99.90;;;;;;4827773;29;20267;-79
2021/01/06 04:48:27;;;;;;;;;;;3.50;99.90;;;;;;4809552;29;19924;-78
2021/01/06 04:51:04;;;;;;;;;;;3.50;99.90;;;;;;4793502;29;19935;-81
2021/01/06 04:53:37;;;;;;;;;;;3.50;99.90;;;;;;4828204;29;19932;-79
2021/01/06 04:56:19;;;;;;;;;;;3.70;99.90;;;;;;4829055;29;19932;-78
2021/01/06 04:58:50;;;;;;;;;;;3.70;99.90;;;;;;4815107;29;19936;-79
2021/01/06 05:01:37;;;;;;;;;;;3.70;99.90;;;;;;4844442;29;19935;-79
2021/01/06 05:04:11;;;;;;;;;;;3.70;99.90;;;;;;4816847;29;19929;-80
2021/01/06 05:06:50;;;;;;;;;;;3.60;99.90;;;;;;4810792;29;19925;-80
2021/01/06 05:09:20;;;;;;;;;;;3.70;99.90;;;;;;4796615;29;19925;-79
2021/01/06 05:11:55;;;;;;;;;;;3.70;99.90;;;;;;4826927;29;19925;-80
2021/01/06 05:14:28;;;;;;;;;;;3.60;99.90;;;;;;4824815;29;19932;-79
2021/01/06 05:16:57;;;;;;;;;;;3.50;99.90;;;;;;4827082;29;19929;-79
2021/01/06 05:19:25;;;;;;;;;;;3.60;99.90;;;;;;4822773;29;20279;-81
2021/01/06 05:21:53;;;;;;;;;;;3.60;99.90;;;;;;4833909;29;19925;-79
2021/01/06 05:24:22;;;;;;;;;;;3.60;99.90;;;;;;4806526;29;20240;-81
2021/01/06 05:26:54;;;;;;;;;;;3.70;99.90;;;;;;4781847;29;20360;-79
2021/01/06 05:29:24;;;;;;;;;;;3.70;99.90;;;;;;4827770;29;19925;-79
2021/01/06 05:31:55;;;;;;;;;;;3.70;99.90;;;;;;4820859;29;19936;-79
2021/01/06 05:34:26;;;;;;;;;;;3.70;99.90;;;;;;4821613;29;20386;-80
2021/01/06 05:36:56;;;;;;;;;;;3.70;99.90;;;;;;4836201;29;19924;-81
2021/01/06 05:39:29;;;;;;;;;;;3.70;99.90;;;;;;4825419;29;20391;-82
2021/01/06 05:42:00;;;;;;;;;;;3.80;99.90;;;;;;4831625;29;19925;-80
2021/01/06 05:44:27;;;;;;;;;;;3.80;99.90;;;;;;4843756;29;19924;-79
2021/01/06 05:46:54;;;;;;;;;;;3.90;99.90;;;;;;4832252;29;19921;-79
2021/01/06 05:49:28;;;;;;;;;;;3.80;99.90;;;;;;4837344;29;19935;-78
2021/01/06 05:51:56;;;;;;;;;;;3.80;99.90;;;;;;4814653;29;19936;-80
2021/01/06 05:54:28;;;;;;;;;;;3.80;99.90;;;;;;4837951;29;19924;-79
2021/01/06 05:56:58;;;;;;;;;;;3.80;99.90;;;;;;4810837;29;19929;-80
2021/01/06 05:59:40;;;;;;;;;;;3.80;99.90;;;;;;4814625;29;19925;-79
2021/01/06 06:02:19;;;;;;;;;;;3.80;99.90;;;;;;4825149;29;19925;-78
2021/01/06 06:04:56;;;;;;;;;;;3.80;99.90;;;;;;4820766;29;19928;-79
2021/01/06 06:07:28;;;;;;;;;;;3.80;99.90;;;;;;4806431;29;19928;-78
2021/01/06 06:10:25;;;;;;;;;;;3.80;99.90;;;;;;4813050;29;19925;-78
2021/01/06 06:13:14;;;;;;;;;;;3.80;99.90;;;;;;4747430;30;19926;-79
2021/01/06 06:15:50;;;;;;;;;;;3.80;99.90;;;;;;4705174;30;19926;-80
2021/01/06 06:18:27;;;;;;;;;;;3.70;99.90;;;;;;4741617;30;19937;-79
2021/01/06 06:20:58;;;;;;;;;;;3.80;99.90;;;;;;4739708;30;19927;-78
2021/01/06 06:23:44;;;;;;;;;;;3.70;99.90;;;;;;4733911;30;20381;-79
2021/01/06 06:26:18;;;;;;;;;;;3.70;99.90;;;;;;4752854;30;19926;-81
2021/01/06 06:28:50;;;;;;;;;;;3.70;99.90;;;;;;4745688;30;20396;-80
2021/01/06 06:31:22;;;;;;;;;;;3.80;99.90;;;;;;4747334;30;19947;-78
2021/01/06 06:33:53;;;;;;;;;;;3.80;99.90;;;;;;4736403;30;20300;-79
2021/01/06 06:36:22;;;;;;;;;;;3.80;99.90;;;;;;4726055;30;19937;-78
2021/01/06 06:38:50;;;;;;;;;;;3.90;99.90;;;;;;4738229;30;20373;-78
2021/01/06 06:41:26;;;;;;;;;;;3.90;99.90;;;;;;4732193;30;19926;-79
2021/01/06 06:44:09;;;;;;;;;;;3.80;99.90;;;;;;4756334;30;19933;-79
2021/01/06 06:46:47;;;;;;;;;;;3.80;99.90;;;;;;4736295;30;19927;-79
2021/01/06 06:49:23;;;;;;;;;;;3.80;99.90;;;;;;4798160;29;19924;-79
2021/01/06 06:51:54;;;;;;;;;;;3.80;99.90;;;;;;4833823;29;19924;-80
2021/01/06 06:54:24;;;;;;;;;;;3.80;99.90;;;;;;4805267;29;19932;-79
2021/01/06 06:56:56;;;;;;;;;;;3.70;99.90;;;;;;4809995;29;19925;-79
2021/01/06 06:59:26;;;;;;;;;;;3.70;99.90;;;;;;4808677;29;19932;-83
2021/01/06 07:01:58;;;;;;;;;;;3.70;99.90;;;;;;4814059;29;19935;-81
2021/01/06 07:04:28;;;;;;;;;;;3.70;99.90;;;;;;4826260;29;19940;-79
2021/01/06 07:07:00;;;;;;;;;;;3.60;99.90;;;;;;4824469;29;20356;-79
2021/01/06 07:09:31;;;;;;;;;;;3.60;99.90;;;;;;4808186;29;19925;-81
2021/01/06 07:12:03;;;;;;;;;;;3.60;99.90;;;;;;4823817;29;20356;-80
2021/01/06 07:14:31;;;;;;;;;;;3.70;99.90;;;;;;4817398;29;19996;-78
2021/01/06 07:17:10;;;;;;;;;;;3.90;99.90;;;;;;4823819;29;19944;-79
2021/01/06 07:19:39;;;;;;;;;;;3.90;99.90;;;;;;4839326;29;19925;-81
2021/01/06 07:22:17;;;;;;;;;;;3.80;99.90;;;;;;4840393;29;19925;-79
2021/01/06 07:24:50;;;;;;;;;;;3.90;99.90;;;;;;4821392;29;19924;-78
2021/01/06 07:27:17;;;;;;;;;;;3.80;99.90;;;;;;4830318;29;19935;-80
2021/01/06 07:29:46;;;;;;;;;;;3.80;99.90;;;;;;4837676;29;19928;-79
2021/01/06 07:32:13;;;;;;;;;;;3.90;99.90;;;;;;4813533;29;19925;-79
2021/01/06 07:34:42;;;;;;;;;;;3.80;99.90;;;;;;4808440;29;19925;-79
2021/01/06 07:37:28;;;;;;;;;;;3.80;99.90;;;;;;4827150;29;19936;-79
2021/01/06 07:39:59;;;;;;;;;;;3.80;99.90;;;;;;4831518;29;19935;-79
2021/01/06 07:42:34;;;;;;;;;;;3.80;99.90;;;;;;4824636;29;19947;-80
2021/01/06 07:45:24;;;;;;;;;;;3.80;99.90;;;;;;4818681;29;19925;-78
2021/01/06 07:47:54;;;;;;;;;;;3.80;99.90;;;;;;4823678;29;20352;-78
2021/01/06 07:50:24;;;;;;;;;;;3.80;99.90;;;;;;4809300;29;19932;-78
2021/01/06 07:52:55;;;;;;;;;;;3.80;99.90;;;;;;4825159;29;19935;-78
2021/01/06 07:55:28;;;;;;;;;;;3.80;99.90;;;;;;4820570;29;19929;-80
2021/01/06 07:57:57;;;;;;;;;;;3.90;99.90;;;;;;4819362;29;19963;-79
2021/01/06 08:00:31;;;;;;;;;;;3.90;99.90;;;;;;4826750;29;19943;-79
2021/01/06 08:03:14;;;;;;;;;;;3.90;99.90;;;;;;4807984;29;19925;-78
2021/01/06 08:05:41;;;;;;;;;;;4.00;99.90;;;;;;4835420;29;19925;-80
2021/01/06 08:08:12;;;;;;;;;;;4.00;99.90;;;;;;4815136;29;19929;-77
2021/01/06 08:10:40;;;;;;;;;;;4.00;99.90;;;;;;4823391;29;19925;-79
2021/01/06 08:13:10;;;;;;;;;;;3.90;99.90;;;;;;4808084;29;19928;-78
2021/01/06 08:15:38;;;;;;;;;;;3.90;99.90;;;;;;4824713;29;19925;-78
2021/01/06 08:18:11;;;;;;;;;;;3.90;99.90;;;;;;4826137;29;19925;-79
2021/01/06 08:20:45;;;;;;;;;;;3.90;99.90;;;;;;4825032;29;19955;-80
2021/01/06 08:23:25;;;;;;;;;;;3.80;99.90;;;;;;4839973;29;19936;-78
2021/01/06 08:25:56;;;;;;;;;;;3.80;99.90;;;;;;4834801;29;19925;-79
2021/01/06 08:28:25;;;;;;;;;;;4.00;99.90;;;;;;4827544;29;19925;-79
2021/01/06 08:30:52;;;;;;;;;;;4.00;99.90;;;;;;4827995;29;20004;-81
2021/01/06 08:33:19;;;;;;;;;;;3.90;99.90;;;;;;4814869;29;19932;-79
2021/01/06 08:35:50;;;;;;;;;;;3.90;99.90;;;;;;4823964;29;19925;-81
2021/01/06 08:38:26;;;;;;;;;;;3.90;99.90;;;;;;4813540;29;19932;-81
2021/01/06 08:40:54;;;;;;;;;;;3.90;99.90;;;;;;4820034;29;19925;-78
2021/01/06 08:43:21;;;;;;;;;;;3.90;99.90;;;;;;4809012;29;19925;-78
2021/01/06 08:45:57;;;;;;;;;;;4.00;99.90;;;;;;4825041;29;19925;-79
2021/01/06 08:48:26;;;;;;;;;;;4.10;99.90;;;;;;4834907;29;19940;-78
2021/01/06 08:50:57;;;;;;;;;;;4.10;99.90;;;;;;4845897;29;19925;-78
2021/01/06 08:53:32;;;;;;;;;;;4.10;99.90;;;;;;4824976;29;19925;-77
2021/01/06 08:56:02;;;;;;;;;;;4.20;99.90;;;;;;4818370;29;19925;-77
2021/01/06 08:58:41;;;;;;;;;;;4.10;99.90;;;;;;4808658;29;19945;-79
2021/01/06 09:01:18;;;;;;;;;;;4.20;99.90;;;;;;4817806;29;19925;-79
2021/01/06 09:04:01;;;;;;;;;;;4.20;99.90;;;;;;4814434;29;19936;-79
2021/01/06 09:06:30;;;;;;;;;;;4.10;99.90;;;;;;4825661;29;19925;-78
2021/01/06 09:09:13;;;;;;;;;;;4.20;99.90;;;;;;4829236;29;19932;-78
2021/01/06 09:11:45;;;;;;;;;;;4.20;99.90;;;;;;4826874;29;19943;-78
2021/01/06 09:14:13;;;;;;;;;;;4.20;99.90;;;;;;4819256;29;19931;-80
2021/01/06 09:16:46;;;;;;;;;;;4.10;99.90;;;;;;4835560;29;19932;-79
2021/01/06 09:19:20;;;;;;;;;;;4.10;99.90;;;;;;4828548;29;20348;-79
2021/01/06 09:21:47;;;;;;;;;;;4.10;99.90;;;;;;4819359;29;19938;-79
2021/01/06 09:24:18;;;;;;;;;;;4.10;99.90;;;;;;4825866;29;19924;-79
2021/01/06 09:26:46;;;;;;;;;;;4.20;99.90;;;;;;4828857;29;19925;-78
2021/01/06 09:29:16;;;;;;;;;;;4.10;99.90;;;;;;4823745;29;19952;-78
2021/01/06 09:31:45;;;;;;;;;;;4.10;99.90;;;;;;4822956;29;19924;-79
2021/01/06 09:34:15;;;;;;;;;;;4.00;99.90;;;;;;4823628;29;19924;-80
2021/01/06 09:36:42;;;;;;;;;;;4.10;99.90;;;;;;4839841;29;20355;-79
2021/01/06 09:39:15;;;;;;;;;;;4.20;99.90;;;;;;4810482;29;19925;-78
2021/01/06 09:41:44;;;;;;;;;;;4.10;99.90;;;;;;4819813;29;19925;-80
2021/01/06 09:44:11;;;;;;;;;;;4.10;99.90;;;;;;4823012;29;20367;-80
2021/01/06 09:46:43;;;;;;;;;;;4.20;99.90;;;;;;4827890;29;20360;-82
2021/01/06 09:49:16;;;;;;;;;;;4.20;99.90;;;;;;4829331;29;19936;-80
2021/01/06 09:51:46;;;;;;;;;;;4.30;99.90;;;;;;4831042;29;19936;-82
2021/01/06 09:54:14;;;;;;;;;;;4.30;99.90;;;;;;4831994;29;19932;-84
2021/01/06 09:56:43;;;;;;;;;;;4.30;99.90;;;;;;4819076;29;19932;-81
2021/01/06 09:59:17;;;;;;;;;;;4.30;99.90;;;;;;4852481;29;19925;-80
2021/01/06 10:01:51;;;;;;;;;;;4.30;99.90;;;;;;4828212;29;19932;-84
2021/01/06 10:04:20;;;;;;;;;;;4.30;99.90;;;;;;4806478;29;19956;-82
2021/01/06 10:06:49;;;;;;;;;;;4.40;99.90;;;;;;4808138;29;20347;-81
2021/01/06 10:09:21;;;;;;;;;;;4.40;99.90;;;;;;4802016;29;19944;-82
2021/01/06 10:11:54;;;;;;;;;;;4.40;99.90;;;;;;4829937;29;19944;-81
2021/01/06 10:14:32;;;;;;;;;;;4.50;99.90;;;;;;4819838;29;19925;-83
2021/01/06 10:17:01;;;;;;;;;;;4.50;99.90;;;;;;4825922;29;20303;-81
2021/01/06 10:19:36;;;;;;;;;;;4.60;99.90;;;;;;4822647;29;20247;-82
2021/01/06 10:22:26;;;;;;;;;;;4.60;99.90;;;;;;4805848;29;19944;-82
2021/01/06 10:25:00;;;;;;;;;;;4.70;99.90;;;;;;4847660;29;19936;-82
2021/01/06 10:27:30;;;;;;;;;;;4.70;99.90;;;;;;4835221;29;19929;-81
2021/01/06 10:30:07;;;;;;;;;;;4.70;99.90;;;;;;4804227;29;19924;-81
2021/01/06 10:32:55;;;;;;;;;;;4.70;99.90;;;;;;4818125;29;19929;-81
2021/01/06 10:35:37;;;;;;;;;;;4.80;99.90;;;;;;4754077;30;19936;-84
2021/01/06 10:38:22;;;;;;;;;;;4.80;99.90;;;;;;4770860;30;19937;-84
2021/01/06 10:40:51;;;;;;;;;;;4.80;99.90;;;;;;4763470;30;19926;-82
2021/01/06 10:43:34;;;;;;;;;;;4.80;99.90;;;;;;4756624;30;19925;-83
2021/01/06 10:46:03;;;;;;;;;;;4.70;99.90;;;;;;4766138;30;19925;-85
2021/01/06 10:48:40;;;;;;;;;;;4.70;99.90;;;;;;4777209;30;19937;-81
2021/01/06 10:51:07;;;;;;;;;;;4.80;99.90;;;;;;4769485;30;19940;-81
2021/01/06 10:53:37;;;;;;;;;;;4.90;99.90;;;;;;4761484;30;19926;-82
2021/01/06 10:56:06;;;;;;;;;;;5.00;99.90;;;;;;4754487;30;20308;-79
2021/01/06 10:58:37;;;;;;;;;;;5.10;99.90;;;;;;4731283;30;20349;-80
2021/01/06 11:01:19;;;;;;;;;;;5.10;99.90;;;;;;4749357;30;19933;-84
2021/01/06 11:03:53;;;;;;;;;;;5.10;99.90;;;;;;4754714;30;19940;-80
2021/01/06 11:06:26;;;;;;;;;;;5.00;99.90;;;;;;4746424;30;19930;-79
2021/01/06 11:09:01;;;;;;;;;;;5.00;99.90;;;;;;4767527;30;20055;-80
2021/01/06 11:11:37;;;;;;;;;;;4.80;99.90;;;;;;4745901;29;19925;-80
2021/01/06 11:14:20;;;;;;;;;;;4.70;99.90;;;;;;4810337;29;19939;-80
2021/01/06 11:16:49;;;;;;;;;;;4.70;99.90;;;;;;4837286;29;20012;-80
2021/01/06 11:19:35;;;;;;;;;;;4.70;99.90;;;;;;4826490;29;20136;-78
2021/01/06 11:22:04;;;;;;;;;;;4.60;99.90;;;;;;4810387;29;19925;-77
2021/01/06 11:24:34;;;;;;;;;;;4.50;99.90;;;;;;4822380;29;19924;-79
2021/01/06 11:27:03;;;;;;;;;;;4.50;99.90;;;;;;4822623;29;20272;-80
2021/01/06 11:29:46;;;;;;;;;;;4.40;99.90;;;;;;4810667;29;19924;-80
2021/01/06 11:32:30;;;;;;;;;;;4.40;99.90;;;;;;4818044;29;19925;-79
2021/01/06 11:35:32;;;;;;;;;;;4.40;99.90;;;;;;4806677;29;19928;-81
2021/01/06 11:38:22;;;;;;;;;;;4.30;99.90;;;;;;4784762;29;19924;-80
2021/01/06 11:40:56;;;;;;;;;;;4.30;99.90;;;;;;4813737;29;19925;-78
2021/01/06 11:43:48;;;;;;;;;;;4.30;99.90;;;;;;4822605;29;19936;-80
2021/01/06 11:46:32;;;;;;;;;;;4.30;99.90;;;;;;4820915;29;19924;-81
2021/01/06 11:49:07;;;;;;;;;;;4.30;99.90;;;;;;4834779;29;19925;-80
2021/01/06 11:51:35;;;;;;;;;;;4.40;99.90;;;;;;4824462;29;19925;-78
2021/01/06 11:54:12;;;;;;;;;;;4.40;99.90;;;;;;4816156;29;19928;-78
2021/01/06 11:56:47;;;;;;;;;;;4.40;99.90;;;;;;4823731;29;20346;-78
2021/01/06 11:59:24;;;;;;;;;;;4.30;99.90;;;;;;4825411;29;19925;-80
2021/01/06 12:02:09;;;;;;;;;;;4.20;99.90;;;;;;4818628;29;19940;-82
2021/01/06 12:04:50;;;;;;;;;;;4.30;99.90;;;;;;4821673;29;19925;-79
2021/01/06 12:07:25;;;;;;;;;;;4.20;99.90;;;;;;4825448;29;19949;-82
2021/01/06 12:10:06;;;;;;;;;;;4.20;99.90;;;;;;4817686;29;19925;-79
2021/01/06 12:12:47;;;;;;;;;;;4.20;99.90;;;;;;4837799;29;19925;-79
2021/01/06 12:15:31;;;;;;;;;;;4.20;99.90;;;;;;4820439;29;20382;-79
2021/01/06 12:18:01;;;;;;;;;;;4.20;99.90;;;;;;4807529;29;19925;-77
2021/01/06 12:20:30;;;;;;;;;;;4.20;99.90;;;;;;4842509;29;19951;-78
2021/01/06 12:23:16;;;;;;;;;;;4.20;99.90;;;;;;4824779;29;19932;-78
2021/01/06 12:25:46;;;;;;;;;;;4.20;99.90;;;;;;4816300;29;19925;-78
2021/01/06 12:28:28;;;;;;;;;;;4.30;99.90;;;;;;4822696;29;19933;-78
2021/01/06 12:31:10;;;;;;;;;;;4.20;99.90;;;;;;4811925;29;19936;-78
2021/01/06 12:33:39;;;;;;;;;;;4.10;99.90;;;;;;4833066;29;19928;-77
2021/01/06 12:36:15;;;;;;;;;;;4.10;99.90;;;;;;4836601;29;20003;-78
2021/01/06 12:38:43;;;;;;;;;;;4.00;99.90;;;;;;4827854;29;19924;-77
2021/01/06 12:41:16;;;;;;;;;;;4.00;99.90;;;;;;4825560;29;19935;-78
2021/01/06 12:43:46;;;;;;;;;;;4.00;99.90;;;;;;4802913;29;19952;-78
2021/01/06 12:46:22;;;;;;;;;;;4.10;99.90;;;;;;4819444;29;20423;-76
2021/01/06 12:49:01;;;;;;;;;;;4.10;99.90;;;;;;4808391;29;19936;-78
2021/01/06 12:51:32;;;;;;;;;;;4.00;99.90;;;;;;4828156;29;20231;-77
2021/01/06 12:54:01;;;;;;;;;;;4.00;99.90;;;;;;4816868;29;19925;-77
2021/01/06 12:56:30;;;;;;;;;;;4.00;99.90;;;;;;4825170;29;20299;-78
2021/01/06 12:59:16;;;;;;;;;;;3.90;99.90;;;;;;4818513;29;20320;-78
2021/01/06 13:01:51;;;;;;;;;;;4.00;99.90;;;;;;4810496;29;19933;-77
2021/01/06 13:04:28;;;;;;;;;;;3.90;99.90;;;;;;4824099;29;19924;-77
2021/01/06 13:06:57;;;;;;;;;;;3.90;99.90;;;;;;4823049;29;19933;-78
2021/01/06 13:09:32;;;;;;;;;;;4.00;99.90;;;;;;4810677;29;19936;-79
2021/01/06 13:12:44;;;;;;;;;;;3.90;99.90;;;;;;4819873;29;19935;-79
2021/01/06 13:16:25;;;;;;;;;;;3.90;99.90;;;;;;4822026;29;19929;-80
2021/01/06 13:22:42;;;;;;;;;;;3.80;99.90;;;;;;4824315;29;20279;-81
2021/01/06 13:25:34;;;;;;;;;;;3.80;99.90;;;;;;4827484;29;19925;-78
2021/01/06 13:28:20;;;;;;;;;;;3.90;99.90;;;;;;4818058;29;19925;-77
2021/01/06 13:30:50;;;;;;;;;;;3.80;99.90;;;;;;4851893;29;19940;-79
2021/01/06 13:33:24;;;;;;;;;;;3.90;99.90;;;;;;4830573;29;19925;-78
2021/01/06 13:36:21;;;;;;;;;;;3.90;99.90;;;;;;4834194;29;19935;-81
2021/01/06 13:39:07;;;;;;;;;;;3.80;99.90;;;;;;4819609;29;19929;-79
2021/01/06 13:41:44;;;;;;;;;;;3.80;99.90;;;;;;4850749;29;19989;-78
2021/01/06 13:44:36;;;;;;;;;;;3.80;99.90;;;;;;4823034;29;19925;-78
2021/01/06 13:47:12;;;;;;;;;;;3.80;99.90;;;;;;4837635;29;19940;-77
2021/01/06 13:49:47;;;;;;;;;;;3.80;99.90;;;;;;4812567;29;19924;-78
2021/01/06 13:52:26;;;;;;;;;;;3.80;99.90;;;;;;4827883;29;20251;-80
2021/01/06 13:54:58;;;;;;;;;;;3.80;99.90;;;;;;4824376;29;19941;-79
2021/01/06 13:57:30;;;;;;;;;;;3.90;99.90;;;;;;4816797;29;19925;-79
2021/01/06 14:00:06;;;;;;;;;;;3.80;99.90;;;;;;4829517;29;19929;-79
2021/01/06 14:02:52;;;;;;;;;;;3.90;99.90;;;;;;4826755;29;19925;-85
2021/01/06 14:05:27;;;;;;;;;;;3.80;99.90;;;;;;4835798;29;19925;-78
2021/01/06 14:08:10;;;;;;;;;;;3.70;99.90;;;;;;4824812;29;19933;-83
2021/01/06 14:10:43;;;;;;;;;;;3.60;99.90;;;;;;4813330;29;20370;-80
2021/01/06 14:13:18;;;;;;;;;;;3.70;99.90;;;;;;4815118;29;19925;-79
2021/01/06 14:16:04;;;;;;;;;;;3.70;99.90;;;;;;4817382;29;19947;-80
2021/01/06 14:18:34;;;;;;;;;;;3.70;99.90;;;;;;4820092;29;19924;-79
2021/01/06 14:21:13;;;;;;;;;;;3.60;99.90;;;;;;4832535;29;19935;-81
2021/01/06 14:23:45;;;;;;;;;;;3.60;99.90;;;;;;4836051;29;19925;-79
2021/01/06 14:26:27;;;;;;;;;;;3.60;99.90;;;;;;4828710;29;19924;-79
2021/01/06 14:29:07;;;;;;;;;;;3.60;99.90;;;;;;4828884;29;19936;-80
2021/01/06 14:31:37;;;;;;;;;;;3.70;99.90;;;;;;4832892;29;19924;-79
2021/01/06 14:34:12;;;;;;;;;;;3.60;99.90;;;;;;4813051;29;19924;-78
2021/01/06 14:36:48;;;;;;;;;;;3.60;99.90;;;;;;4827417;29;20348;-80
2021/01/06 14:39:36;;;;;;;;;;;3.60;99.90;;;;;;4842866;29;19932;-80
2021/01/06 14:42:06;;;;;;;;;;;3.50;99.90;;;;;;4824044;29;19929;-79
2021/01/06 14:44:49;;;;;;;;;;;3.50;99.90;;;;;;4809649;29;19924;-81
2021/01/06 14:47:33;;;;;;;;;;;3.40;99.90;;;;;;4810075;29;20264;-81
2021/01/06 14:50:07;;;;;;;;;;;3.40;99.90;;;;;;4814278;29;19925;-80
2021/01/06 14:52:39;;;;;;;;;;;3.40;99.90;;;;;;4841656;29;19935;-80
2021/01/06 14:55:16;;;;;;;;;;;3.40;99.90;;;;;;4813696;29;19935;-82
2021/01/06 14:57:50;;;;;;;;;;;3.40;99.90;;;;;;4840367;29;19931;-79
2021/01/06 15:00:32;;;;;;;;;;;3.30;99.90;;;;;;4828887;29;20467;-81
2021/01/06 15:03:16;;;;;;;;;;;3.40;99.90;;;;;;4840434;29;19936;-80
2021/01/06 15:05:51;;;;;;;;;;;3.40;99.90;;;;;;4826945;29;20267;-80
2021/01/06 15:08:22;;;;;;;;;;;3.40;99.90;;;;;;4809812;29;19936;-80
2021/01/06 15:11:03;;;;;;;;;;;3.40;99.90;;;;;;4824426;29;20262;-81